Aviosuperficie Cascina Colombare

IT-0045 · 皮埃蒙特, 意大利

罗盘
风向 的 风向 的 风向 到 风向 310° Aviosuperficie Cascina Colombare 8/26
风: 4 kt, 2 beaufort

2 kt

3 kt
改变
0 ft 1.000 2.000 3.000 4.000 5.000
CAVOK
METAR LIMN 281255Z 31004KT 270V350 CAVOK 15/08 Q1016 RMK BKN SCT070 SCT200 VIS MIN 9999 BLU

METAR Aviosuperficie Cascina Colombare - IT-0045

Aviosuperficie Cascina Colombare是,意大利中的小机场。 该机场位于纬度45,49625和经度8,52556。 该机场有一条跑道: 8/26. 这个机场没有ICAO代码,我们使用IT-0045作为参考。 机场在Milano FIR中。

该航空气象观测是针对Cameri Air Base [MIL]在2024年2月28日 13:55, 当地时间进行的。

机场观察

风向为310°,速度为4 kt。 风向在270°和350°之间变化。

天气为CAVOK。这意味着在5.000 ft或MSA(最低安全高度)以下(以较高者为准)以下没有云。这也意味着没有观测到积雨云或高耸的积云,可见度为10 km 或者更多或更高。此外,不会有雾,降雨或其他重要天气。

温度和风寒是15 °C。 露点为8 °C,相对湿度为63%。 海平面上的气压为1016 hPa (QNH)。

白天

今天,太阳从07:06升起,在18:10降落。 这适用于Aviosuperficie Cascina Colombare,世界夏令时可能有所不同。 当地时间与世界标准时间之间的时差为+1 小时。 当前,没有夏令时有效。

公司介绍

我们没有关于这个机场的公司信息。

体会

到Vliegles.nl去找飞行课程,跳伞和其他飞行体验。 浏览页面,了解Aviosuperficie Cascina Colombare附近所有可用的活动。 你也可以使用搜索功能来寻找你所在地附近的特定飞行课程、跳伞或其他飞行体验。

跑道

Id 标题 侧风 逆风 侧风 %
8/26 073°-253° 3 kt 2 kt 84 %

逆风成分最大的方向会被突出显示,并用于横风计算。 这并不一定意味着这个方向在使用。

温度 & 天气

温度 15 °C
露点 8 °C
相对湿度 63%
Kp-index 1 (0-9)

评论

BKN SCT070 SCT200 VIS MIN 9999

白天

日出
07:06
中午
12:37
日落
18:09 (3:44)

小工具

你想在你的网站上有一个关于Aviosuperficie Cascina Colombare的当前航空天气(METAR)的小部件吗?

显示HTML代码
?>